Time;durP1;ratioP1;P1;durP2;ratioP2;P2;SDS_P1;SDS_P2;PMS_P1;PMS_P2;Temp;Humidity;BMP_temperature;BMP_pressure;BME280_temperature;BME280_humidity;BME280_pressure;Samples;Min_cycle;Max_cycle;Signal;HPM_P1;HPM_P2
2022/04/28 00:00:06;;;;;;;;;;;20.50;50.00;;;;;;5095248;28;20330;-44
2022/04/28 00:02:33;;;;;;;;;;;20.50;50.00;;;;;;5095016;28;19928;-44
2022/04/28 00:05:01;;;;;;;;;;;20.50;50.00;;;;;;5095206;28;19924;-45
2022/04/28 00:07:28;;;;;;;;;;;20.60;50.10;;;;;;5095210;28;19989;-44
2022/04/28 00:09:55;;;;;;;;;;;20.50;50.00;;;;;;5080652;28;20338;-46
2022/04/28 00:12:22;;;;;;;;;;;20.50;50.00;;;;;;5074681;28;20288;-44
2022/04/28 00:14:49;;;;;;;;;;;20.50;50.00;;;;;;5074584;28;19925;-45
2022/04/28 00:17:16;;;;;;;;;;;20.50;50.00;;;;;;5090153;28;19974;-45
2022/04/28 00:19:43;;;;;;;;;;;20.50;50.00;;;;;;5094405;28;20376;-44
2022/04/28 00:22:10;;;;;;;;;;;20.50;50.00;;;;;;5094716;28;20268;-46
2022/04/28 00:24:36;;;;;;;;;;;20.50;50.00;;;;;;5094253;28;19985;-44
2022/04/28 00:27:04;;;;;;;;;;;20.50;50.00;;;;;;5093721;28;20384;-44
2022/04/28 00:29:31;;;;;;;;;;;20.50;50.00;;;;;;5074498;28;19928;-44
2022/04/28 00:31:58;;;;;;;;;;;20.50;50.00;;;;;;5073969;28;20424;-45
2022/04/28 00:34:25;;;;;;;;;;;20.50;50.00;;;;;;5073903;28;19924;-45
2022/04/28 00:36:52;;;;;;;;;;;20.50;50.00;;;;;;5074341;28;19925;-44
2022/04/28 00:39:19;;;;;;;;;;;20.50;50.00;;;;;;5074136;28;20329;-44
2022/04/28 00:41:46;;;;;;;;;;;20.50;50.00;;;;;;5074109;28;19932;-44
2022/04/28 00:44:13;;;;;;;;;;;20.50;50.00;;;;;;5074304;28;19974;-44
2022/04/28 00:46:43;;;;;;;;;;;20.50;50.00;;;;;;5088253;28;19935;-44
2022/04/28 00:51:56;;;;;;;;;;;20.50;50.00;;;;;;5073912;28;20384;-49
2022/04/28 00:54:27;;;;;;;;;;;20.50;50.00;;;;;;5073755;28;19928;-45
2022/04/28 00:56:56;;;;;;;;;;;20.50;50.00;;;;;;5074063;28;19947;-44
2022/04/28 00:59:24;;;;;;;;;;;20.50;50.00;;;;;;5073897;28;19931;-51
2022/04/28 01:01:51;;;;;;;;;;;20.50;50.00;;;;;;5073977;28;19947;-53
2022/04/28 01:04:18;;;;;;;;;;;20.50;50.00;;;;;;5073949;28;19967;-52
2022/04/28 01:06:46;;;;;;;;;;;20.50;50.00;;;;;;5056306;28;19986;-53
2022/04/28 01:09:14;;;;;;;;;;;20.50;50.00;;;;;;5073578;28;19928;-53
2022/04/28 01:11:41;;;;;;;;;;;20.50;50.20;;;;;;5074250;28;19924;-51
2022/04/28 01:14:08;;;;;;;;;;;20.50;50.00;;;;;;5093897;28;19982;-53
2022/04/28 01:16:34;;;;;;;;;;;20.50;50.10;;;;;;5093623;28;19985;-50
2022/04/28 01:19:02;;;;;;;;;;;20.50;50.00;;;;;;5093404;28;19931;-52
2022/04/28 01:21:30;;;;;;;;;;;20.50;50.60;;;;;;5075784;28;19924;-50
2022/04/28 01:23:58;;;;;;;;;;;20.50;50.00;;;;;;5092513;28;19977;-46
2022/04/28 01:26:27;;;;;;;;;;;20.50;50.00;;;;;;5093151;28;19924;-49
2022/04/28 01:28:55;;;;;;;;;;;20.50;50.00;;;;;;5093534;28;19930;-51
2022/04/28 01:31:21;;;;;;;;;;;20.50;50.60;;;;;;5093590;28;19938;-50
2022/04/28 01:33:48;;;;;;;;;;;20.50;50.00;;;;;;5093862;28;19939;-50
2022/04/28 01:36:15;;;;;;;;;;;20.50;50.00;;;;;;5093356;28;20338;-52
2022/04/28 01:38:43;;;;;;;;;;;20.50;50.00;;;;;;5093318;28;19927;-43
2022/04/28 01:41:11;;;;;;;;;;;20.50;50.00;;;;;;5093131;28;19924;-52
2022/04/28 01:43:38;;;;;;;;;;;20.50;50.00;;;;;;5093585;28;20307;-51
2022/04/28 01:46:05;;;;;;;;;;;20.50;50.00;;;;;;5096191;28;19928;-47
2022/04/28 01:48:32;;;;;;;;;;;20.50;50.00;;;;;;5100116;28;19924;-44
2022/04/28 01:56:29;;;;;;;;;;;20.50;50.00;;;;;;5079841;28;19936;-50
2022/04/28 01:58:56;;;;;;;;;;;20.50;50.00;;;;;;5080004;28;19947;-52
2022/04/28 02:01:23;;;;;;;;;;;20.50;50.00;;;;;;5079847;28;19924;-50
2022/04/28 02:03:51;;;;;;;;;;;20.50;50.00;;;;;;5079938;28;19924;-49
2022/04/28 02:06:18;;;;;;;;;;;20.50;50.00;;;;;;5079441;28;19936;-45
2022/04/28 02:08:46;;;;;;;;;;;20.40;49.90;;;;;;5087422;28;20307;-44
2022/04/28 02:11:14;;;;;;;;;;;20.50;50.00;;;;;;5099847;28;19931;-44
2022/04/28 02:13:41;;;;;;;;;;;20.50;50.00;;;;;;5099907;28;19924;-44
2022/04/28 02:16:10;;;;;;;;;;;20.50;50.00;;;;;;5082318;28;19935;-44
2022/04/28 02:18:37;;;;;;;;;;;20.50;50.00;;;;;;5100210;28;19928;-44
2022/04/28 02:21:04;;;;;;;;;;;20.50;50.00;;;;;;5098737;28;19931;-45
2022/04/28 02:23:31;;;;;;;;;;;20.50;50.00;;;;;;5099402;28;19931;-45
2022/04/28 02:25:58;;;;;;;;;;;20.50;50.00;;;;;;5100289;28;19928;-45
2022/04/28 02:28:25;;;;;;;;;;;20.40;49.90;;;;;;5099655;28;19925;-44
2022/04/28 02:30:53;;;;;;;;;;;20.50;50.00;;;;;;5099909;28;19924;-44
2022/04/28 02:33:20;;;;;;;;;;;20.50;50.00;;;;;;5099738;28;19928;-45
2022/04/28 02:35:48;;;;;;;;;;;20.50;50.00;;;;;;5099315;28;20213;-44
2022/04/28 02:38:15;;;;;;;;;;;20.50;50.00;;;;;;5099576;28;19924;-49
2022/04/28 02:40:42;;;;;;;;;;;20.50;50.60;;;;;;5099392;28;19924;-49
2022/04/28 02:43:09;;;;;;;;;;;20.50;50.00;;;;;;5081748;28;19924;-48
2022/04/28 02:45:36;;;;;;;;;;;20.50;50.00;;;;;;5099533;28;19924;-48
2022/04/28 02:48:04;;;;;;;;;;;20.50;50.00;;;;;;5099410;28;19975;-46
2022/04/28 02:50:30;;;;;;;;;;;20.50;50.00;;;;;;5099468;28;19924;-51
2022/04/28 02:52:58;;;;;;;;;;;20.50;50.00;;;;;;5099352;28;19938;-47
2022/04/28 02:55:25;;;;;;;;;;;20.50;50.00;;;;;;5099447;28;19974;-44
2022/04/28 02:57:52;;;;;;;;;;;20.50;50.00;;;;;;5096305;28;20393;-45
2022/04/28 03:00:26;;;;;;;;;;;20.50;50.60;;;;;;5095914;28;19928;-44
2022/04/28 03:02:53;;;;;;;;;;;20.40;49.90;;;;;;5096066;28;20383;-44
2022/04/28 03:05:20;;;;;;;;;;;20.40;49.90;;;;;;5096547;28;19924;-44
2022/04/28 03:10:51;;;;;;;;;;;20.40;49.90;;;;;;5095634;28;19924;-45
2022/04/28 03:13:21;;;;;;;;;;;20.50;50.00;;;;;;5096037;28;19934;-44
2022/04/28 03:15:49;;;;;;;;;;;20.40;50.00;;;;;;5095448;28;20023;-44
2022/04/28 03:18:16;;;;;;;;;;;20.40;50.00;;;;;;5075424;28;19924;-44
2022/04/28 03:20:43;;;;;;;;;;;20.40;49.90;;;;;;5075887;28;19947;-44
2022/04/28 03:23:11;;;;;;;;;;;20.40;49.90;;;;;;5082164;28;19931;-44
2022/04/28 03:25:38;;;;;;;;;;;20.40;50.00;;;;;;5095529;28;19935;-45
2022/04/28 03:28:06;;;;;;;;;;;20.40;50.00;;;;;;5096068;28;19993;-44
2022/04/28 03:30:33;;;;;;;;;;;20.40;50.00;;;;;;5095724;28;20375;-44
2022/04/28 03:33:00;;;;;;;;;;;20.40;50.00;;;;;;5095946;28;19932;-44
2022/04/28 03:35:27;;;;;;;;;;;20.40;50.00;;;;;;5095921;28;20022;-44
2022/04/28 03:37:55;;;;;;;;;;;20.40;49.90;;;;;;5095500;28;19931;-44
2022/04/28 03:40:22;;;;;;;;;;;20.40;49.90;;;;;;5095258;28;19924;-44
2022/04/28 03:42:49;;;;;;;;;;;20.40;50.00;;;;;;5089967;28;19936;-44
2022/04/28 03:45:16;;;;;;;;;;;20.40;50.00;;;;;;5075231;28;20038;-44
2022/04/28 03:47:43;;;;;;;;;;;20.40;50.00;;;;;;5075522;28;19925;-44
2022/04/28 03:50:10;;;;;;;;;;;20.40;50.00;;;;;;5074903;28;19936;-46
2022/04/28 03:52:37;;;;;;;;;;;20.40;49.90;;;;;;5057742;28;19970;-43
2022/04/28 03:55:05;;;;;;;;;;;20.40;50.60;;;;;;5075375;28;19947;-45
2022/04/28 03:57:32;;;;;;;;;;;20.40;50.00;;;;;;5075377;28;20315;-43
2022/04/28 03:59:59;;;;;;;;;;;20.40;50.00;;;;;;5074946;28;19935;-44
2022/04/28 04:02:26;;;;;;;;;;;20.40;50.60;;;;;;5074787;28;19990;-44
2022/04/28 04:04:53;;;;;;;;;;;20.40;50.00;;;;;;5074818;28;19925;-45
2022/04/28 04:07:20;;;;;;;;;;;20.40;50.00;;;;;;5075035;28;19994;-45
2022/04/28 04:09:47;;;;;;;;;;;20.40;50.00;;;;;;5090137;28;19924;-44
2022/04/28 04:12:19;;;;;;;;;;;20.40;49.90;;;;;;5094541;28;19971;-44
2022/04/28 04:14:45;;;;;;;;;;;20.40;49.90;;;;;;5094866;28;19931;-43
2022/04/28 04:17:12;;;;;;;;;;;20.40;49.90;;;;;;5094900;28;19927;-44
2022/04/28 04:19:39;;;;;;;;;;;20.40;49.90;;;;;;5094835;28;19928;-45
2022/04/28 04:22:06;;;;;;;;;;;20.40;49.90;;;;;;5094885;28;20264;-44
2022/04/28 04:24:34;;;;;;;;;;;20.40;49.90;;;;;;5094242;28;20283;-52
2022/04/28 04:27:03;;;;;;;;;;;20.40;49.90;;;;;;5094539;28;19924;-49
2022/04/28 04:29:29;;;;;;;;;;;20.40;49.90;;;;;;5094782;28;19924;-52
2022/04/28 04:34:42;;;;;;;;;;;20.40;49.90;;;;;;5094409;28;19978;-51
2022/04/28 04:37:09;;;;;;;;;;;20.40;49.90;;;;;;5094266;28;20396;-50
2022/04/28 04:39:36;;;;;;;;;;;20.40;49.90;;;;;;5094456;28;19947;-52
2022/04/28 04:42:03;;;;;;;;;;;20.40;50.40;;;;;;5094433;28;20283;-49
2022/04/28 04:44:30;;;;;;;;;;;20.40;49.80;;;;;;5094200;28;19930;-44
2022/04/28 04:46:57;;;;;;;;;;;20.50;49.90;;;;;;5094325;28;19928;-45
2022/04/28 04:49:24;;;;;;;;;;;20.50;49.90;;;;;;5093985;28;19928;-47
2022/04/28 04:51:51;;;;;;;;;;;20.40;49.70;;;;;;5094089;28;19924;-45
2022/04/28 04:54:20;;;;;;;;;;;20.50;49.80;;;;;;5094396;28;20509;-45
2022/04/28 04:56:47;;;;;;;;;;;20.50;49.80;;;;;;5094115;28;19924;-46
2022/04/28 04:59:14;;;;;;;;;;;20.50;49.80;;;;;;5093674;28;19924;-45
2022/04/28 05:01:42;;;;;;;;;;;20.50;49.80;;;;;;5094281;28;19981;-44
2022/04/28 05:04:09;;;;;;;;;;;20.50;49.80;;;;;;5093854;28;19985;-51
2022/04/28 05:06:36;;;;;;;;;;;20.50;49.70;;;;;;5093766;28;19924;-46
2022/04/28 05:09:03;;;;;;;;;;;20.50;49.70;;;;;;5092108;28;20355;-46
2022/04/28 05:11:30;;;;;;;;;;;20.50;49.70;;;;;;5093537;28;19924;-45
2022/04/28 05:13:57;;;;;;;;;;;20.60;49.70;;;;;;5093676;28;19977;-45
2022/04/28 05:16:23;;;;;;;;;;;20.60;49.70;;;;;;5093892;28;19973;-45
2022/04/28 05:18:51;;;;;;;;;;;20.50;49.60;;;;;;5093985;28;19924;-44
2022/04/28 05:21:18;;;;;;;;;;;20.60;49.60;;;;;;5077382;28;19925;-45
2022/04/28 05:23:45;;;;;;;;;;;20.60;49.60;;;;;;5073103;28;19924;-44
2022/04/28 05:26:12;;;;;;;;;;;20.50;49.50;;;;;;5073275;28;19970;-45
2022/04/28 05:28:40;;;;;;;;;;;20.60;49.60;;;;;;5073317;28;19951;-45
2022/04/28 05:31:07;;;;;;;;;;;20.60;49.50;;;;;;5073342;28;19928;-46
2022/04/28 05:33:34;;;;;;;;;;;20.60;49.50;;;;;;5073369;28;19924;-45
2022/04/28 05:36:01;;;;;;;;;;;20.60;49.50;;;;;;5087171;28;19924;-46
2022/04/28 05:38:29;;;;;;;;;;;20.60;49.50;;;;;;5093080;28;19932;-45
2022/04/28 05:40:57;;;;;;;;;;;20.60;49.40;;;;;;5093148;28;19933;-45
2022/04/28 05:46:09;;;;;;;;;;;20.70;49.40;;;;;;5109354;28;19932;-48
2022/04/28 05:48:36;;;;;;;;;;;20.70;49.40;;;;;;5091618;28;19924;-48
2022/04/28 05:51:08;;;;;;;;;;;20.70;49.40;;;;;;5111275;28;19928;-46
2022/04/28 05:53:35;;;;;;;;;;;20.70;49.30;;;;;;5113067;28;19931;-45
2022/04/28 05:56:02;;;;;;;;;;;20.70;49.30;;;;;;5113311;28;19923;-44
2022/04/28 05:58:29;;;;;;;;;;;20.70;49.30;;;;;;5095431;28;19932;-47
2022/04/28 06:00:56;;;;;;;;;;;20.70;49.30;;;;;;5113266;28;19924;-45
2022/04/28 06:03:23;;;;;;;;;;;20.70;49.20;;;;;;5113145;28;20328;-47
2022/04/28 06:05:50;;;;;;;;;;;20.80;49.30;;;;;;5100987;28;19931;-45
2022/04/28 06:08:17;;;;;;;;;;;20.70;49.80;;;;;;5092642;28;20291;-47
2022/04/28 06:10:44;;;;;;;;;;;20.80;49.20;;;;;;5092716;28;19924;-47
2022/04/28 06:13:11;;;;;;;;;;;20.80;49.20;;;;;;5092708;28;19924;-47
2022/04/28 06:15:38;;;;;;;;;;;20.70;49.10;;;;;;5093089;28;19924;-45
2022/04/28 06:18:06;;;;;;;;;;;20.70;49.10;;;;;;5092718;28;19974;-47
2022/04/28 06:20:33;;;;;;;;;;;20.80;49.20;;;;;;5092783;28;19931;-50
2022/04/28 06:23:00;;;;;;;;;;;20.80;49.20;;;;;;5092503;28;19924;-45
2022/04/28 06:25:28;;;;;;;;;;;20.80;49.20;;;;;;5092513;28;19931;-47
2022/04/28 06:27:55;;;;;;;;;;;20.80;49.20;;;;;;5093093;28;19928;-47
2022/04/28 06:30:21;;;;;;;;;;;20.80;49.20;;;;;;5092816;28;19928;-44
2022/04/28 06:32:49;;;;;;;;;;;20.80;49.20;;;;;;5077408;28;20287;-44
2022/04/28 06:35:16;;;;;;;;;;;20.80;49.20;;;;;;5096734;28;20341;-48
2022/04/28 06:37:43;;;;;;;;;;;20.80;49.20;;;;;;5096743;28;19924;-48
2022/04/28 06:40:12;;;;;;;;;;;20.80;49.20;;;;;;5078324;28;19928;-46
2022/04/28 06:42:42;;;;;;;;;;;20.80;49.20;;;;;;5096525;28;20006;-45
2022/04/28 06:45:09;;;;;;;;;;;20.80;49.20;;;;;;5096241;28;19928;-45
2022/04/28 06:47:36;;;;;;;;;;;20.70;49.10;;;;;;5096574;28;20024;-44
2022/04/28 06:50:07;;;;;;;;;;;20.70;49.10;;;;;;5096143;28;19924;-46
2022/04/28 06:52:35;;;;;;;;;;;20.70;49.10;;;;;;5096428;28;20294;-45
2022/04/28 06:55:03;;;;;;;;;;;20.70;49.10;;;;;;5095963;28;19970;-49
2022/04/28 06:57:30;;;;;;;;;;;20.80;49.20;;;;;;5096135;28;19924;-50
2022/04/28 06:59:57;;;;;;;;;;;20.70;49.10;;;;;;5096532;28;19969;-45
2022/04/28 07:02:24;;;;;;;;;;;20.80;49.20;;;;;;5094869;28;19924;-48
2022/04/28 07:04:52;;;;;;;;;;;20.80;49.10;;;;;;5096336;28;19924;-47
2022/04/28 07:07:19;;;;;;;;;;;20.80;49.10;;;;;;5095774;28;19924;-48
2022/04/28 07:09:46;;;;;;;;;;;20.80;49.10;;;;;;5095225;28;19924;-48
2022/04/28 07:12:30;;;;;;;;;;;20.80;49.10;;;;;;5091342;28;19974;-47
2022/04/28 07:14:58;;;;;;;;;;;20.80;49.10;;;;;;5075247;28;19970;-44
2022/04/28 07:17:25;;;;;;;;;;;20.80;49.00;;;;;;5075019;28;19928;-44
2022/04/28 07:19:52;;;;;;;;;;;20.80;49.00;;;;;;5075712;28;20261;-46
2022/04/28 07:22:19;;;;;;;;;;;20.80;49.00;;;;;;5075027;28;20291;-48
2022/04/28 07:24:46;;;;;;;;;;;20.90;49.00;;;;;;5075276;28;19932;-46
2022/04/28 07:27:13;;;;;;;;;;;20.80;48.90;;;;;;5078321;28;19932;-50
2022/04/28 07:29:40;;;;;;;;;;;20.90;48.90;;;;;;5095341;28;19928;-45
2022/04/28 07:32:10;;;;;;;;;;;20.90;48.90;;;;;;5095623;28;19950;-47
2022/04/28 07:34:37;;;;;;;;;;;20.90;48.80;;;;;;5095705;28;20265;-45
2022/04/28 07:37:05;;;;;;;;;;;20.90;48.80;;;;;;5095235;28;19949;-46
2022/04/28 07:39:32;;;;;;;;;;;20.90;48.70;;;;;;5095267;28;20337;-49
2022/04/28 07:41:59;;;;;;;;;;;20.90;48.70;;;;;;5077471;28;19924;-46
2022/04/28 07:44:26;;;;;;;;;;;20.90;48.70;;;;;;5094743;28;20808;-45
2022/04/28 07:46:53;;;;;;;;;;;21.00;48.70;;;;;;5095347;28;19932;-47
2022/04/28 07:49:21;;;;;;;;;;;21.00;48.70;;;;;;5095409;28;20291;-50
2022/04/28 07:51:48;;;;;;;;;;;21.00;48.60;;;;;;5095327;28;20015;-44
2022/04/28 07:54:17;;;;;;;;;;;21.10;48.60;;;;;;5095558;28;20322;-45
2022/04/28 07:56:47;;;;;;;;;;;21.00;48.50;;;;;;5095093;28;19970;-45
2022/04/28 07:59:15;;;;;;;;;;;21.10;48.50;;;;;;5093310;28;19924;-48
2022/04/28 08:01:50;;;;;;;;;;;21.10;48.40;;;;;;5095139;28;19935;-43
2022/04/28 08:04:18;;;;;;;;;;;21.10;48.30;;;;;;5095200;28;19924;-45
2022/04/28 08:06:44;;;;;;;;;;;21.20;48.40;;;;;;5095050;28;19928;-47
2022/04/28 08:09:11;;;;;;;;;;;21.20;48.30;;;;;;5086143;28;20417;-44
2022/04/28 08:11:40;;;;;;;;;;;21.20;48.20;;;;;;5074205;28;20376;-44
2022/04/28 08:14:07;;;;;;;;;;;21.20;48.10;;;;;;5074447;28;20020;-45
2022/04/28 08:16:34;;;;;;;;;;;21.30;48.10;;;;;;5074408;28;19931;-46
2022/04/28 08:19:02;;;;;;;;;;;21.30;48.10;;;;;;5074193;28;20015;-49
2022/04/28 08:21:29;;;;;;;;;;;21.30;47.90;;;;;;5074338;28;20388;-48
2022/04/28 08:23:57;;;;;;;;;;;21.40;48.00;;;;;;5080597;28;19931;-44
2022/04/28 08:26:24;;;;;;;;;;;21.40;47.90;;;;;;5094339;28;19931;-46
2022/04/28 08:28:51;;;;;;;;;;;21.40;47.80;;;;;;5094450;28;19928;-50
2022/04/28 08:31:18;;;;;;;;;;;21.40;47.70;;;;;;5094617;28;19931;-52
2022/04/28 08:33:47;;;;;;;;;;;21.50;47.80;;;;;;5094715;28;19924;-52
2022/04/28 08:36:14;;;;;;;;;;;21.50;47.70;;;;;;5094839;28;19947;-50
2022/04/28 08:38:41;;;;;;;;;;;21.50;47.70;;;;;;5093885;28;19928;-47
2022/04/28 08:41:09;;;;;;;;;;;21.50;47.60;;;;;;5093774;28;19924;-46
2022/04/28 08:43:37;;;;;;;;;;;21.60;47.60;;;;;;5094151;28;19970;-48
2022/04/28 08:48:54;;;;;;;;;;;21.60;47.50;;;;;;5093907;28;20437;-47
2022/04/28 08:51:21;;;;;;;;;;;21.60;47.50;;;;;;5093406;28;19928;-45
2022/04/28 08:53:49;;;;;;;;;;;21.60;47.40;;;;;;5092557;28;19924;-45
2022/04/28 08:56:17;;;;;;;;;;;21.70;47.40;;;;;;5093273;28;19947;-51
2022/04/28 08:58:44;;;;;;;;;;;21.70;48.00;;;;;;5094253;28;19974;-49
2022/04/28 09:01:11;;;;;;;;;;;21.70;47.40;;;;;;5075433;28;19931;-46
2022/04/28 09:03:38;;;;;;;;;;;21.70;47.40;;;;;;5093673;28;19976;-47
2022/04/28 09:06:29;;;;;;;;;;;21.60;47.20;;;;;;5077392;28;19967;-47
2022/04/28 09:09:05;;;;;;;;;;;21.70;47.30;;;;;;5073516;28;19982;-45
2022/04/28 09:11:35;;;;;;;;;;;21.70;47.30;;;;;;5073256;28;19946;-51
2022/04/28 09:14:12;;;;;;;;;;;21.60;47.30;;;;;;5073484;28;19955;-45
2022/04/28 09:16:42;;;;;;;;;;;21.60;47.30;;;;;;5073600;28;19936;-44
2022/04/28 09:19:12;;;;;;;;;;;21.60;47.30;;;;;;5073562;28;19924;-47
2022/04/28 09:21:40;;;;;;;;;;;21.60;47.30;;;;;;5072989;28;19977;-45
2022/04/28 09:24:07;;;;;;;;;;;21.60;47.30;;;;;;5081649;28;19937;-45
2022/04/28 09:26:35;;;;;;;;;;;21.60;47.40;;;;;;5093294;28;19977;-46
2022/04/28 09:29:03;;;;;;;;;;;21.60;47.40;;;;;;5093746;28;20319;-48
2022/04/28 09:31:33;;;;;;;;;;;21.60;47.50;;;;;;5093543;28;20303;-48
2022/04/28 09:34:21;;;;;;;;;;;21.60;47.50;;;;;;5093711;28;19993;-45
2022/04/28 09:36:49;;;;;;;;;;;21.50;47.50;;;;;;5093845;28;19924;-46
2022/04/28 09:44:58;;;;;;;;;;;21.40;47.60;;;;;;5092998;28;19932;-45
2022/04/28 09:47:26;;;;;;;;;;;21.50;47.80;;;;;;5093431;28;19978;-47
2022/04/28 09:49:55;;;;;;;;;;;21.40;47.70;;;;;;5092586;28;20318;-45
2022/04/28 09:52:25;;;;;;;;;;;21.40;47.80;;;;;;5093246;28;20339;-45
2022/04/28 09:54:53;;;;;;;;;;;21.40;47.80;;;;;;5093005;28;19969;-47
2022/04/28 09:57:20;;;;;;;;;;;21.40;47.80;;;;;;5092767;28;19928;-45
2022/04/28 09:59:48;;;;;;;;;;;21.40;47.90;;;;;;5093208;28;19967;-45
2022/04/28 10:02:18;;;;;;;;;;;21.40;47.90;;;;;;5080718;28;19932;-45
2022/04/28 10:04:46;;;;;;;;;;;21.40;47.90;;;;;;5073446;28;19924;-46
2022/04/28 10:07:14;;;;;;;;;;;21.40;47.80;;;;;;5074120;28;19925;-45
2022/04/28 10:09:42;;;;;;;;;;;21.40;47.80;;;;;;5067780;28;20362;-46
2022/04/28 10:12:09;;;;;;;;;;;21.50;47.90;;;;;;5076869;28;20438;-46
2022/04/28 10:14:39;;;;;;;;;;;21.50;47.80;;;;;;5076890;28;19925;-45
2022/04/28 10:17:10;;;;;;;;;;;21.50;47.80;;;;;;5076923;28;19985;-48
2022/04/28 10:19:41;;;;;;;;;;;21.50;47.80;;;;;;5076014;28;19925;-45
2022/04/28 10:22:10;;;;;;;;;;;21.50;47.70;;;;;;5076512;28;20362;-47
2022/04/28 10:33:10;;;;;;;;;;;21.50;47.70;;;;;;5096700;28;19960;-46
2022/04/28 10:35:38;;;;;;;;;;;21.50;47.80;;;;;;5096542;28;19924;-45
2022/04/28 10:38:05;;;;;;;;;;;21.50;47.80;;;;;;5096713;28;19966;-46
2022/04/28 10:40:59;;;;;;;;;;;21.50;47.70;;;;;;5060831;28;19974;-45
2022/04/28 10:43:32;;;;;;;;;;;21.60;47.80;;;;;;5071509;28;19925;-46
2022/04/28 10:46:08;;;;;;;;;;;21.60;47.70;;;;;;5077405;28;19925;-45
2022/04/28 10:48:42;;;;;;;;;;;21.60;47.70;;;;;;5096331;28;19969;-52
2022/04/28 10:51:13;;;;;;;;;;;21.60;47.60;;;;;;5096251;28;19989;-45
2022/04/28 10:54:05;;;;;;;;;;;21.60;47.60;;;;;;5096185;28;19928;-46
2022/04/28 10:56:41;;;;;;;;;;;21.60;47.60;;;;;;5096366;28;19931;-46
2022/04/28 10:59:31;;;;;;;;;;;21.60;47.60;;;;;;5094042;28;19978;-46
2022/04/28 11:02:09;;;;;;;;;;;21.60;47.60;;;;;;5096325;28;19946;-46
2022/04/28 11:04:41;;;;;;;;;;;21.60;47.70;;;;;;5096055;28;19946;-46
2022/04/28 11:07:14;;;;;;;;;;;21.60;47.70;;;;;;5096137;28;20380;-46
2022/04/28 11:09:42;;;;;;;;;;;21.60;47.70;;;;;;5096133;28;19928;-50
2022/04/28 11:12:11;;;;;;;;;;;21.60;47.80;;;;;;5096316;28;20338;-50
2022/04/28 11:14:59;;;;;;;;;;;21.60;47.80;;;;;;5095918;28;19924;-49
2022/04/28 11:17:30;;;;;;;;;;;21.50;47.70;;;;;;5095922;28;20361;-50
2022/04/28 11:20:03;;;;;;;;;;;21.50;47.70;;;;;;5094872;28;19973;-50
2022/04/28 11:22:30;;;;;;;;;;;21.50;47.70;;;;;;5095845;28;19973;-45
2022/04/28 11:24:57;;;;;;;;;;;21.50;47.80;;;;;;5094927;28;19946;-48
2022/04/28 11:27:25;;;;;;;;;;;21.50;47.80;;;;;;5095424;28;19924;-50
2022/04/28 11:29:58;;;;;;;;;;;21.50;47.80;;;;;;5095614;28;19953;-46
2022/04/28 11:32:25;;;;;;;;;;;21.50;47.80;;;;;;5095685;28;19969;-48
2022/04/28 11:34:52;;;;;;;;;;;21.50;47.80;;;;;;5093447;28;19924;-46
2022/04/28 11:37:24;;;;;;;;;;;21.50;47.80;;;;;;5075027;28;19924;-47
2022/04/28 11:39:55;;;;;;;;;;;21.50;47.80;;;;;;5075007;28;20336;-50
2022/04/28 11:42:43;;;;;;;;;;;21.50;47.80;;;;;;5080220;28;19966;-48
2022/04/28 11:45:10;;;;;;;;;;;21.50;48.40;;;;;;5095155;28;19924;-46
2022/04/28 11:47:41;;;;;;;;;;;21.50;47.70;;;;;;5095326;28;19924;-47
2022/04/28 11:50:16;;;;;;;;;;;21.50;47.70;;;;;;5095215;28;19981;-45
2022/04/28 11:52:43;;;;;;;;;;;21.50;47.70;;;;;;5095115;28;19931;-48
2022/04/28 11:55:12;;;;;;;;;;;21.50;47.70;;;;;;5094975;28;19928;-48
2022/04/28 11:57:39;;;;;;;;;;;21.50;47.70;;;;;;5095269;28;19977;-50
2022/04/28 12:00:07;;;;;;;;;;;21.50;47.70;;;;;;5094911;28;19931;-48
2022/04/28 12:02:37;;;;;;;;;;;21.50;47.70;;;;;;5094947;28;19954;-51
2022/04/28 12:05:15;;;;;;;;;;;21.60;47.70;;;;;;5094941;28;19924;-52
2022/04/28 12:07:43;;;;;;;;;;;21.60;47.60;;;;;;5094735;28;19928;-45
2022/04/28 12:15:52;;;;;;;;;;;21.60;47.40;;;;;;5094899;28;19928;-45
2022/04/28 12:21:21;;;;;;;;;;;21.60;47.40;;;;;;5094485;28;19928;-46
2022/04/28 12:23:51;;;;;;;;;;;21.60;47.40;;;;;;5094282;28;19924;-45
2022/04/28 12:26:21;;;;;;;;;;;21.60;47.40;;;;;;5094401;28;19985;-47
2022/04/28 12:28:48;;;;;;;;;;;21.60;47.40;;;;;;5094544;28;19925;-47
2022/04/28 12:31:24;;;;;;;;;;;21.60;47.40;;;;;;5094562;28;19928;-46
2022/04/28 12:34:12;;;;;;;;;;;21.60;47.50;;;;;;5094401;28;19928;-45
2022/04/28 12:36:58;;;;;;;;;;;21.60;47.50;;;;;;5094323;28;19935;-45
2022/04/28 12:39:29;;;;;;;;;;;21.60;47.50;;;;;;5093444;28;19963;-46
2022/04/28 12:41:56;;;;;;;;;;;21.60;47.60;;;;;;5094181;28;19977;-47
2022/04/28 12:44:23;;;;;;;;;;;21.60;47.60;;;;;;5094077;28;19982;-47
2022/04/28 12:46:55;;;;;;;;;;;21.50;47.50;;;;;;5093890;28;19935;-47
2022/04/28 12:49:23;;;;;;;;;;;21.60;47.50;;;;;;5094294;28;19924;-49
2022/04/28 12:51:52;;;;;;;;;;;21.60;47.50;;;;;;5093812;28;19928;-45
2022/04/28 12:54:20;;;;;;;;;;;21.60;47.40;;;;;;5093547;28;19924;-45
2022/04/28 12:56:57;;;;;;;;;;;21.60;47.40;;;;;;5094385;28;19924;-47
2022/04/28 12:59:28;;;;;;;;;;;21.70;47.50;;;;;;5093973;28;19924;-45
2022/04/28 13:01:58;;;;;;;;;;;21.60;47.30;;;;;;5094271;28;19931;-45
2022/04/28 13:04:27;;;;;;;;;;;21.60;47.40;;;;;;5093722;28;19928;-46
2022/04/28 13:06:54;;;;;;;;;;;21.60;47.50;;;;;;5093928;28;19924;-45
2022/04/28 13:09:29;;;;;;;;;;;21.60;47.50;;;;;;5076869;28;19955;-49
2022/04/28 13:11:57;;;;;;;;;;;21.60;47.50;;;;;;5093864;28;19924;-44
2022/04/28 13:14:24;;;;;;;;;;;21.60;47.50;;;;;;5094045;28;19973;-45
2022/04/28 13:16:51;;;;;;;;;;;21.60;47.50;;;;;;5093650;28;19963;-45
2022/04/28 13:19:22;;;;;;;;;;;21.60;47.50;;;;;;5093706;28;19931;-45
2022/04/28 13:21:50;;;;;;;;;;;21.60;47.50;;;;;;5093613;28;20042;-48
2022/04/28 13:24:17;;;;;;;;;;;21.60;47.50;;;;;;5092798;28;19938;-46
2022/04/28 13:26:44;;;;;;;;;;;21.60;47.50;;;;;;5093542;28;20380;-45
2022/04/28 13:29:12;;;;;;;;;;;21.60;47.40;;;;;;5093704;28;20288;-48
2022/04/28 13:31:40;;;;;;;;;;;21.60;48.00;;;;;;5093809;28;19934;-47
2022/04/28 13:34:09;;;;;;;;;;;21.60;47.40;;;;;;5093717;28;19924;-45
2022/04/28 13:36:37;;;;;;;;;;;21.70;47.40;;;;;;5092712;28;19931;-47
2022/04/28 13:39:04;;;;;;;;;;;21.70;47.40;;;;;;5093411;28;20420;-47
2022/04/28 13:41:32;;;;;;;;;;;21.60;47.30;;;;;;5092904;28;19928;-48
2022/04/28 13:43:59;;;;;;;;;;;21.70;47.40;;;;;;5093271;28;19924;-46
2022/04/28 13:46:26;;;;;;;;;;;21.70;47.30;;;;;;5093029;28;19996;-48
2022/04/28 13:48:53;;;;;;;;;;;21.60;47.30;;;;;;5093291;28;20394;-46
2022/04/28 13:51:20;;;;;;;;;;;21.70;47.40;;;;;;5093202;28;19932;-46
2022/04/28 13:53:47;;;;;;;;;;;21.70;47.40;;;;;;5093259;28;19924;-52
2022/04/28 13:56:14;;;;;;;;;;;21.60;47.30;;;;;;5093174;28;19945;-46
2022/04/28 13:58:44;;;;;;;;;;;21.70;47.40;;;;;;5093012;28;20441;-50
2022/04/28 14:01:12;;;;;;;;;;;21.70;47.40;;;;;;5093104;28;20023;-47
2022/04/28 14:03:39;;;;;;;;;;;21.60;47.30;;;;;;5093510;28;20284;-46
2022/04/28 14:06:07;;;;;;;;;;;21.60;47.90;;;;;;5075248;28;20010;-48
2022/04/28 14:08:36;;;;;;;;;;;21.70;47.30;;;;;;5093297;28;19928;-48
2022/04/28 14:11:04;;;;;;;;;;;21.60;47.20;;;;;;5093034;28;19924;-46
2022/04/28 14:13:32;;;;;;;;;;;21.70;47.30;;;;;;5093088;28;19970;-45
2022/04/28 14:15:59;;;;;;;;;;;21.70;47.30;;;;;;5093094;28;20398;-49
2022/04/28 14:18:26;;;;;;;;;;;21.70;47.20;;;;;;5092991;28;19930;-44
2022/04/28 14:20:54;;;;;;;;;;;21.70;47.30;;;;;;5092996;28;19924;-48
2022/04/28 14:23:25;;;;;;;;;;;21.70;47.30;;;;;;5092823;28;19930;-45
2022/04/28 14:25:52;;;;;;;;;;;21.60;47.30;;;;;;5073368;28;19983;-48
2022/04/28 14:28:20;;;;;;;;;;;21.70;47.30;;;;;;5072429;28;19970;-50
2022/04/28 14:30:47;;;;;;;;;;;21.70;48.00;;;;;;5073021;28;20273;-46
2022/04/28 14:33:34;;;;;;;;;;;21.60;47.30;;;;;;5072741;28;19924;-45
2022/04/28 14:36:02;;;;;;;;;;;21.60;47.40;;;;;;5072704;28;19928;-46
2022/04/28 14:38:30;;;;;;;;;;;21.60;47.50;;;;;;5081934;28;19928;-48
2022/04/28 14:40:57;;;;;;;;;;;21.50;47.50;;;;;;5092352;28;19931;-49
2022/04/28 14:43:25;;;;;;;;;;;21.60;47.60;;;;;;5092676;28;19966;-51
2022/04/28 14:45:52;;;;;;;;;;;21.50;47.50;;;;;;5092657;28;19931;-49
2022/04/28 14:48:19;;;;;;;;;;;21.50;47.50;;;;;;5092671;28;19931;-49
2022/04/28 14:53:47;;;;;;;;;;;21.50;47.60;;;;;;5094759;28;19924;-53
2022/04/28 14:56:14;;;;;;;;;;;21.50;47.50;;;;;;5096177;28;19924;-50
2022/04/28 14:58:41;;;;;;;;;;;21.50;47.50;;;;;;5096061;28;19928;-49
2022/04/28 15:01:09;;;;;;;;;;;21.60;47.50;;;;;;5096436;28;19924;-53
2022/04/28 15:03:38;;;;;;;;;;;21.60;47.50;;;;;;5096191;28;19924;-48
2022/04/28 15:06:05;;;;;;;;;;;21.60;47.50;;;;;;5096635;28;19925;-46
2022/04/28 15:08:32;;;;;;;;;;;21.60;47.50;;;;;;5093106;28;19931;-45